< < Back
Terminal Aerodrome Forecast


Current Version              Previous Versions:   1  2  3  4  5  6  7  8  9  

Terminal Aerodrome Forecast

354
FTUS42 KILM 231100
TAFFLO
TAF
KFLO 231121Z 2312/2412 30006KT P6SM FEW005
      TEMPO 2312/2313 4SM BR
     FM231400 34011G17KT P6SM SKC
     FM240000 03005KT P6SM SKC=

Latest METAR

391
SAUS70 KWBC 231900 RRD
MTRFLO
METAR KFLO 231853Z 30011G20KT 10SM CLR 27/04 A2982 RMK AO2 SLP094
T02720044


USA.gov is the U.S. government's official web portal to all federal, state and local government web resources and services.